Thunder radar more information blitzortung!


Radar de pluja more information rain snow radar


Visita la nostra xarxa de llocs de meteo:

Template documentation
and downloads

And another site



No particular awareness of the weather is required.    There are no Weather-warnings

Pagina Historial Weather Underground text

Diari Resum Juny 10, 2017 Unitats:  Tant    Imperial   Mètric
« Previous Dia
SegĂźent Dia »
Diari Setmana Mensual Anual Personalitzada
  Maxima: Minima: Media:
Temperatura: 92.3 °F /  33.5 °C 59.7 °F /  15.4 °C 79 °F /  26.1 °C
Punt de rosada: 62.2 °F /  16.8 °C 46 °F /  7.8 °C 52.3 °F /  11.3 °C
Humitat: 82 % 24 % 43 %
Wind Speed: 10.7 mph /  17.2 km/h - 3.9 mph /  6.3 km/h
RĂ fegues de vent: 10.7 mph /  17.2 km/h - -
Vent:- - SSW
Pression baro: 30.1 in /  1019.9 hPa 30 in /  1014.8 hPa -
Precipitacions: 0 in /  0.0 mm    
Historical Graphs
 
 
Dades de taula per Juny 10, 2017
Temps Temperatura Punt de rosada Pression baro Vent Wind Speed RĂ fegues de vent Humitat Rainfall Rate (Hourly)
00:00 62.2 °F /  16.8 °C 56.7 °F /  13.7 °C 30.1 in /  1017.8 hPa Calm     82 % 0 in /  0.0 mm
00:01 67.5 °F /  19.7 °C 58.5 °F /  14.7 °C 30.1 in /  1017.8 hPa NNW 1.2 mph /  1.9 km/h   73 % 0 in /  0.0 mm
00:06 67.3 °F /  19.6 °C 58.6 °F /  14.8 °C 30.1 in /  1018.8 hPa NNE 1.2 mph /  1.9 km/h 1.2 mph /  1.9 km/h 74 % 0 in /  0.0 mm
00:10 61.9 °F /  16.6 °C 55.9 °F /  13.3 °C 30.1 in /  1017.8 hPa WNW 1 mph /  1.6 km/h 2 mph /  3.2 km/h 81 % 0 in /  0.0 mm
00:20 61.7 °F /  16.5 °C 55.8 °F /  13.2 °C 30.1 in /  1017.8 hPa Calm   2 mph /  3.2 km/h 81 % 0 in /  0.0 mm
00:30 60.8 °F /  16.0 °C 54.7 °F /  12.6 °C 30.1 in /  1017.8 hPa WNW 1 mph /  1.6 km/h 2 mph /  3.2 km/h 80 % 0 in /  0.0 mm
00:40 60.4 °F /  15.8 °C 54 °F /  12.2 °C 30.1 in /  1017.8 hPa WSW 1 mph /  1.6 km/h 2 mph /  3.2 km/h 79 % 0 in /  0.0 mm
00:50 60.1 °F /  15.6 °C 53.4 °F /  11.9 °C 30.1 in /  1017.8 hPa Calm   2 mph /  3.2 km/h 79 % 0 in /  0.0 mm
01:00 60.1 °F /  15.6 °C 53.4 °F /  11.9 °C 30.1 in /  1017.8 hPa Calm   2 mph /  3.2 km/h 79 % 0 in /  0.0 mm
01:10 60.1 °F /  15.6 °C 53.4 °F /  11.9 °C 30.1 in /  1017.8 hPa WSW 1 mph /  1.6 km/h 2 mph /  3.2 km/h 79 % 0 in /  0.0 mm
01:20 59.9 °F /  15.5 °C 53.4 °F /  11.9 °C 30.1 in /  1017.8 hPa WSW 1 mph /  1.6 km/h 1 mph /  1.6 km/h 79 % 0 in /  0.0 mm
01:30 59.7 °F /  15.4 °C 53.2 °F /  11.8 °C 30.1 in /  1017.8 hPa WSW 1 mph /  1.6 km/h 2 mph /  3.2 km/h 79 % 0 in /  0.0 mm
01:40 59.9 °F /  15.5 °C 53.4 °F /  11.9 °C 30.1 in /  1017.8 hPa Calm   2 mph /  3.2 km/h 79 % 0 in /  0.0 mm
01:50 59.7 °F /  15.4 °C 53.2 °F /  11.8 °C 30.1 in /  1017.8 hPa SW 2 mph /  3.2 km/h 3 mph /  4.8 km/h 79 % 0 in /  0.0 mm
02:00 59.7 °F /  15.4 °C 53.2 °F /  11.8 °C 30.1 in /  1017.8 hPa SW 2 mph /  3.2 km/h 3 mph /  4.8 km/h 79 % 0 in /  0.0 mm
02:10 59.9 °F /  15.5 °C 53.4 °F /  11.9 °C 30.1 in /  1018.8 hPa SW 2 mph /  3.2 km/h 2 mph /  3.2 km/h 79 % 0 in /  0.0 mm
02:20 60.3 °F /  15.7 °C 53.8 °F /  12.1 °C 30.1 in /  1018.8 hPa SW 1 mph /  1.6 km/h 2 mph /  3.2 km/h 79 % 0 in /  0.0 mm
02:30 61.2 °F /  16.2 °C 54.7 °F /  12.6 °C 30.1 in /  1018.8 hPa Calm   1 mph /  1.6 km/h 79 % 0 in /  0.0 mm
02:40 63.5 °F /  17.5 °C 56.8 °F /  13.8 °C 30.1 in /  1018.8 hPa Calm     79 % 0 in /  0.0 mm
02:50 65.8 °F /  18.8 °C 58.5 °F /  14.7 °C 30.1 in /  1018.8 hPa Calm   1 mph /  1.6 km/h 77 % 0 in /  0.0 mm
03:00 66.9 °F /  19.4 °C 58.5 °F /  14.7 °C 30.1 in /  1018.8 hPa Calm     74 % 0 in /  0.0 mm
03:10 67.5 °F /  19.7 °C 58.5 °F /  14.7 °C 30.1 in /  1018.8 hPa SE 1 mph /  1.6 km/h 2 mph /  3.2 km/h 73 % 0 in /  0.0 mm
03:20 66.7 °F /  19.3 °C 57.4 °F /  14.1 °C 30.1 in /  1018.8 hPa SSW 2 mph /  3.2 km/h 2 mph /  3.2 km/h 72 % 0 in /  0.0 mm
03:30 67.1 °F /  19.5 °C 57.7 °F /  14.3 °C 30.1 in /  1018.8 hPa SW 1 mph /  1.6 km/h 2 mph /  3.2 km/h 72 % 0 in /  0.0 mm
03:40 68.5 °F /  20.3 °C 58.5 °F /  14.7 °C 30.1 in /  1018.8 hPa SW 1 mph /  1.6 km/h 2 mph /  3.2 km/h 70 % 0 in /  0.0 mm
03:50 70.5 °F /  21.4 °C 59.4 °F /  15.2 °C 30.1 in /  1018.8 hPa Calm   2 mph /  3.2 km/h 68 % 0 in /  0.0 mm
04:00 71.6 °F /  22.0 °C 59.2 °F /  15.1 °C 30.1 in /  1018.8 hPa ESE 1 mph /  1.6 km/h 2 mph /  3.2 km/h 65 % 0 in /  0.0 mm
04:10 72.3 °F /  22.4 °C 59.9 °F /  15.5 °C 30.1 in /  1018.8 hPa Calm   4 mph /  6.4 km/h 65 % 0 in /  0.0 mm
04:20 72.7 °F /  22.6 °C 59.4 °F /  15.2 °C 30.1 in /  1018.8 hPa SSW 1 mph /  1.6 km/h 2 mph /  3.2 km/h 63 % 0 in /  0.0 mm
04:30 73.4 °F /  23.0 °C 60.1 °F /  15.6 °C 30.1 in /  1019.9 hPa SW 2 mph /  3.2 km/h 2 mph /  3.2 km/h 63 % 0 in /  0.0 mm
04:40 74.1 °F /  23.4 °C 60.3 °F /  15.7 °C 30.1 in /  1018.8 hPa SW 1 mph /  1.6 km/h 3 mph /  4.8 km/h 62 % 0 in /  0.0 mm
04:50 75.2 °F /  24.0 °C 60.4 °F /  15.8 °C 30.1 in /  1018.8 hPa West 2 mph /  3.2 km/h 2 mph /  3.2 km/h 60 % 0 in /  0.0 mm
05:00 76.6 °F /  24.8 °C 61.2 °F /  16.2 °C 30.1 in /  1018.8 hPa Calm   3 mph /  4.8 km/h 59 % 0 in /  0.0 mm
05:10 77 °F /  25.0 °C 61.2 °F /  16.2 °C 30.1 in /  1019.9 hPa NE 1 mph /  1.6 km/h 2 mph /  3.2 km/h 58 % 0 in /  0.0 mm
05:20 77.7 °F /  25.4 °C 60.3 °F /  15.7 °C 30.1 in /  1019.9 hPa ENE 2 mph /  3.2 km/h 3 mph /  4.8 km/h 55 % 0 in /  0.0 mm
05:30 79.2 °F /  26.2 °C 61.2 °F /  16.2 °C 30.1 in /  1019.9 hPa SE 2 mph /  3.2 km/h 2 mph /  3.2 km/h 54 % 0 in /  0.0 mm
05:40 80.4 °F /  26.9 °C 62.2 °F /  16.8 °C 30.1 in /  1018.8 hPa SSE 1 mph /  1.6 km/h 3 mph /  4.8 km/h 54 % 0 in /  0.0 mm
05:50 81.7 °F /  27.6 °C 61.9 °F /  16.6 °C 30.1 in /  1018.8 hPa SSE 1 mph /  1.6 km/h 2 mph /  3.2 km/h 51 % 0 in /  0.0 mm
10:56 81.9 °F /  27.7 °C 60.3 °F /  15.7 °C 30.1 in /  1018.8 hPa SSE 2.3 mph /  3.7 km/h 2.3 mph /  3.7 km/h 48 % 0 in /  0.0 mm
11:01 81.7 °F /  27.6 °C 58.8 °F /  14.9 °C 30.1 in /  1018.8 hPa ESE 3.5 mph /  5.6 km/h 3.5 mph /  5.6 km/h 46 % 0 in /  0.0 mm
11:06 82.4 °F /  28.0 °C 60.6 °F /  15.9 °C 30.1 in /  1018.8 hPa West 2.3 mph /  3.7 km/h 2.3 mph /  3.7 km/h 48 % 0 in /  0.0 mm
11:11 83.8 °F /  28.8 °C 61.5 °F /  16.4 °C 30.1 in /  1018.8 hPa WSW 1.6 mph /  2.6 km/h 1.6 mph /  2.6 km/h 47 % 0 in /  0.0 mm
11:16 84.2 °F /  29.0 °C 61.2 °F /  16.2 °C 30.1 in /  1018.8 hPa WSW 2.3 mph /  3.7 km/h 2.3 mph /  3.7 km/h 46 % 0 in /  0.0 mm
11:21 84.2 °F /  29.0 °C 60.6 °F /  15.9 °C 30.1 in /  1017.8 hPa WSW 4.3 mph /  6.9 km/h 4.3 mph /  6.9 km/h 45 % 0 in /  0.0 mm
11:26 84.2 °F /  29.0 °C 59.9 °F /  15.5 °C 30.1 in /  1017.8 hPa SSW 4.6 mph /  7.4 km/h 4.6 mph /  7.4 km/h 44 % 0 in /  0.0 mm
11:31 85.1 °F /  29.5 °C 60.1 °F /  15.6 °C 30.1 in /  1017.8 hPa SW 4.6 mph /  7.4 km/h 4.6 mph /  7.4 km/h 43 % 0 in /  0.0 mm
11:36 84.7 °F /  29.3 °C 59.7 °F /  15.4 °C 30.1 in /  1017.8 hPa SW 3.5 mph /  5.6 km/h 3.5 mph /  5.6 km/h 43 % 0 in /  0.0 mm
11:41 85.6 °F /  29.8 °C 59.9 °F /  15.5 °C 30.1 in /  1017.8 hPa WNW 2.3 mph /  3.7 km/h 2.3 mph /  3.7 km/h 42 % 0 in /  0.0 mm
11:46 85.8 °F /  29.9 °C 58.6 °F /  14.8 °C 30.1 in /  1017.8 hPa WSW 1.2 mph /  1.9 km/h 1.6 mph /  2.6 km/h 40 % 0 in /  0.0 mm
11:51 86 °F /  30.0 °C 58.3 °F /  14.6 °C 30.1 in /  1017.8 hPa SW 5.8 mph /  9.3 km/h 5.8 mph /  9.3 km/h 39 % 0 in /  0.0 mm
11:56 86.9 °F /  30.5 °C 58.3 °F /  14.6 °C 30.1 in /  1017.8 hPa SW 2.3 mph /  3.7 km/h 2.3 mph /  3.7 km/h 38 % 0 in /  0.0 mm
12:01 87.1 °F /  30.6 °C 56.1 °F /  13.4 °C 30.1 in /  1017.8 hPa SSE 3.5 mph /  5.6 km/h 3.5 mph /  5.6 km/h 35 % 0 in /  0.0 mm
12:06 86 °F /  30.0 °C 54.3 °F /  12.4 °C 30.1 in /  1017.8 hPa South 2.4 mph /  3.9 km/h 2.4 mph /  3.9 km/h 34 % 0 in /  0.0 mm
12:11 86.7 °F /  30.4 °C 55 °F /  12.8 °C 30.1 in /  1017.8 hPa ESE 3.1 mph /  5.0 km/h 3.1 mph /  5.0 km/h 34 % 0 in /  0.0 mm
12:16 85.6 °F /  29.8 °C 54.9 °F /  12.7 °C 30.1 in /  1017.8 hPa East 4.6 mph /  7.4 km/h 4.6 mph /  7.4 km/h 35 % 0 in /  0.0 mm
12:21 86.4 °F /  30.2 °C 55.6 °F /  13.1 °C 30.1 in /  1017.8 hPa SE 5.8 mph /  9.3 km/h 5.8 mph /  9.3 km/h 35 % 0 in /  0.0 mm
12:26 86.7 °F /  30.4 °C 58.1 °F /  14.5 °C 30.1 in /  1017.8 hPa SW 6.9 mph /  11.1 km/h 6.9 mph /  11.1 km/h 38 % 0 in /  0.0 mm
12:27 86.7 °F /  30.4 °C 58.1 °F /  14.5 °C 30.1 in /  1017.8 hPa SW 6.9 mph /  11.1 km/h 6.9 mph /  11.1 km/h 38 % 0 in /  0.0 mm
12:32 87.6 °F /  30.9 °C 58.8 °F /  14.9 °C 30.1 in /  1017.8 hPa West 5.8 mph /  9.3 km/h 5.8 mph /  9.3 km/h 38 % 0 in /  0.0 mm
12:37 87.6 °F /  30.9 °C 57.4 °F /  14.1 °C 30.1 in /  1017.8 hPa WSW 3.5 mph /  5.6 km/h 3.5 mph /  5.6 km/h 36 % 0 in /  0.0 mm
12:42 87.8 °F /  31.0 °C 57.6 °F /  14.2 °C 30.1 in /  1017.8 hPa ESE 3.5 mph /  5.6 km/h 3.6 mph /  5.8 km/h 36 % 0 in /  0.0 mm
12:47 87.8 °F /  31.0 °C 57.6 °F /  14.2 °C 30 in /  1016.8 hPa WSW 4.6 mph /  7.4 km/h 4.6 mph /  7.4 km/h 36 % 0 in /  0.0 mm
12:52 87.6 °F /  30.9 °C 57.4 °F /  14.1 °C 30 in /  1016.8 hPa East 2.3 mph /  3.7 km/h 2.3 mph /  3.7 km/h 36 % 0 in /  0.0 mm
12:57 88.3 °F /  31.3 °C 57.9 °F /  14.4 °C 30 in /  1016.8 hPa SE 2.3 mph /  3.7 km/h 2.3 mph /  3.7 km/h 36 % 0 in /  0.0 mm
13:02 88.7 °F /  31.5 °C 58.3 °F /  14.6 °C 30 in /  1016.8 hPa SW 6.9 mph /  11.1 km/h 6.9 mph /  11.1 km/h 36 % 0 in /  0.0 mm
13:07 89.1 °F /  31.7 °C 57 °F /  13.9 °C 30 in /  1016.8 hPa SSE 3.5 mph /  5.6 km/h 3.5 mph /  5.6 km/h 34 % 0 in /  0.0 mm
13:12 89.2 °F /  31.8 °C 57.9 °F /  14.4 °C 30 in /  1016.8 hPa SW 2.6 mph /  4.2 km/h 2.6 mph /  4.2 km/h 35 % 0 in /  0.0 mm
13:17 90.3 °F /  32.4 °C 59 °F /  15.0 °C 30 in /  1016.8 hPa SSW 2.6 mph /  4.2 km/h 2.6 mph /  4.2 km/h 35 % 0 in /  0.0 mm
13:22 89.8 °F /  32.1 °C 57.7 °F /  14.3 °C 30 in /  1016.8 hPa NNE 3.5 mph /  5.6 km/h 3.5 mph /  5.6 km/h 34 % 0 in /  0.0 mm
13:27 89.6 °F /  32.0 °C 56.7 °F /  13.7 °C 30 in /  1016.8 hPa South 2.3 mph /  3.7 km/h 2.3 mph /  3.7 km/h 33 % 0 in /  0.0 mm
13:32 89.2 °F /  31.8 °C 55.6 °F /  13.1 °C 30 in /  1015.8 hPa ESE 4.6 mph /  7.4 km/h 4.6 mph /  7.4 km/h 32 % 0 in /  0.0 mm
13:37 88.7 °F /  31.5 °C 55 °F /  12.8 °C 30 in /  1015.8 hPa East 6 mph /  9.7 km/h 6 mph /  9.7 km/h 32 % 0 in /  0.0 mm
13:42 89.6 °F /  32.0 °C 55.8 °F /  13.2 °C 30 in /  1015.8 hPa East 4.6 mph /  7.4 km/h 4.6 mph /  7.4 km/h 32 % 0 in /  0.0 mm
13:47 88.5 °F /  31.4 °C 55.8 °F /  13.2 °C 30 in /  1015.8 hPa NE 5.8 mph /  9.3 km/h 5.8 mph /  9.3 km/h 33 % 0 in /  0.0 mm
13:52 88 °F /  31.1 °C 55.2 °F /  12.9 °C 30 in /  1015.8 hPa ESE 8.1 mph /  13.0 km/h 8.1 mph /  13.0 km/h 33 % 0 in /  0.0 mm
13:57 87.1 °F /  30.6 °C 53.6 °F /  12.0 °C 30 in /  1015.8 hPa ENE 10.4 mph /  16.7 km/h 10.4 mph /  16.7 km/h 32 % 0 in /  0.0 mm
14:02 87.3 °F /  30.7 °C 52.9 °F /  11.6 °C 30 in /  1015.8 hPa SSE 5.8 mph /  9.3 km/h 5.8 mph /  9.3 km/h 31 % 0 in /  0.0 mm
14:07 87.4 °F /  30.8 °C 54 °F /  12.2 °C 30 in /  1015.8 hPa ESE 9.2 mph /  14.8 km/h 9.2 mph /  14.8 km/h 32 % 0 in /  0.0 mm
14:12 87.1 °F /  30.6 °C 52 °F /  11.1 °C 30 in /  1015.8 hPa SSE 9.2 mph /  14.8 km/h 9.2 mph /  14.8 km/h 30 % 0 in /  0.0 mm
14:17 87.6 °F /  30.9 °C 52.3 °F /  11.3 °C 30 in /  1015.8 hPa ESE 9.2 mph /  14.8 km/h 9.2 mph /  14.8 km/h 30 % 0 in /  0.0 mm
14:22 86.9 °F /  30.5 °C 50.7 °F /  10.4 °C 30 in /  1015.8 hPa ESE 10.4 mph /  16.7 km/h 10.4 mph /  16.7 km/h 29 % 0 in /  0.0 mm
14:27 87.1 °F /  30.6 °C 52 °F /  11.1 °C 30 in /  1015.8 hPa ESE 8.5 mph /  13.7 km/h 8.5 mph /  13.7 km/h 30 % 0 in /  0.0 mm
14:32 86.5 °F /  30.3 °C 50.5 °F /  10.3 °C 30 in /  1015.8 hPa East 5.8 mph /  9.3 km/h 6.2 mph /  10.0 km/h 29 % 0 in /  0.0 mm
14:37 86.7 °F /  30.4 °C 50.7 °F /  10.4 °C 30 in /  1015.8 hPa East 6.9 mph /  11.1 km/h 6.9 mph /  11.1 km/h 29 % 0 in /  0.0 mm
14:42 87.6 °F /  30.9 °C 51.4 °F /  10.8 °C 30 in /  1015.8 hPa SE 8.1 mph /  13.0 km/h 8.1 mph /  13.0 km/h 29 % 0 in /  0.0 mm
14:47 87.6 °F /  30.9 °C 51.4 °F /  10.8 °C 30 in /  1015.8 hPa ESE 5.8 mph /  9.3 km/h 5.8 mph /  9.3 km/h 29 % 0 in /  0.0 mm
14:52 87.6 °F /  30.9 °C 51.4 °F /  10.8 °C 30 in /  1015.8 hPa SW 8.1 mph /  13.0 km/h 8.1 mph /  13.0 km/h 29 % 0 in /  0.0 mm
14:57 89.6 °F /  32.0 °C 52.2 °F /  11.2 °C 30 in /  1015.8 hPa SW 4.6 mph /  7.4 km/h 4.6 mph /  7.4 km/h 28 % 0 in /  0.0 mm
15:02 91.2 °F /  32.9 °C 53.6 °F /  12.0 °C 30 in /  1015.8 hPa South 4.6 mph /  7.4 km/h 4.6 mph /  7.4 km/h 28 % 0 in /  0.0 mm
15:07 90.7 °F /  32.6 °C 53.1 °F /  11.7 °C 30 in /  1015.8 hPa SSE 3.5 mph /  5.6 km/h 3.5 mph /  5.6 km/h 28 % 0 in /  0.0 mm
15:12 90.9 °F /  32.7 °C 52.3 °F /  11.3 °C 30 in /  1015.8 hPa South 3.5 mph /  5.6 km/h 3.5 mph /  5.6 km/h 27 % 0 in /  0.0 mm
15:17 90.9 °F /  32.7 °C 52.3 °F /  11.3 °C 30 in /  1015.8 hPa NNW 5.8 mph /  9.3 km/h 5.8 mph /  9.3 km/h 27 % 0 in /  0.0 mm
15:22 91.4 °F /  33.0 °C 52.7 °F /  11.5 °C 30 in /  1015.8 hPa SW 6.2 mph /  10.0 km/h 6.2 mph /  10.0 km/h 27 % 0 in /  0.0 mm
15:27 91.9 °F /  33.3 °C 53.2 °F /  11.8 °C 30 in /  1015.8 hPa WSW 5.6 mph /  9.0 km/h 5.6 mph /  9.0 km/h 27 % 0 in /  0.0 mm
15:32 92.1 °F /  33.4 °C 52.3 °F /  11.3 °C 30 in /  1015.8 hPa SSW 5.9 mph /  9.5 km/h 5.9 mph /  9.5 km/h 26 % 0 in /  0.0 mm
15:37 91.6 °F /  33.1 °C 51.8 °F /  11.0 °C 30 in /  1015.8 hPa SW 5.8 mph /  9.3 km/h 5.8 mph /  9.3 km/h 26 % 0 in /  0.0 mm
15:42 91.6 °F /  33.1 °C 50.7 °F /  10.4 °C 30 in /  1015.8 hPa South 8.1 mph /  13.0 km/h 8.1 mph /  13.0 km/h 25 % 0 in /  0.0 mm
15:47 92.3 °F /  33.5 °C 52.5 °F /  11.4 °C 30 in /  1015.8 hPa South 6.9 mph /  11.1 km/h 6.9 mph /  11.1 km/h 26 % 0 in /  0.0 mm
15:52 91.2 °F /  32.9 °C 50.5 °F /  10.3 °C 30 in /  1015.8 hPa South 6.9 mph /  11.1 km/h 6.9 mph /  11.1 km/h 25 % 0 in /  0.0 mm
15:57 90.7 °F /  32.6 °C 48.9 °F /  9.4 °C 30 in /  1015.8 hPa SW 9.8 mph /  15.8 km/h 9.8 mph /  15.8 km/h 24 % 0 in /  0.0 mm
16:02 90.1 °F /  32.3 °C 49.6 °F /  9.8 °C 30 in /  1014.8 hPa SW 9.2 mph /  14.8 km/h 9.2 mph /  14.8 km/h 25 % 0 in /  0.0 mm
16:07 90 °F /  32.2 °C 49.5 °F /  9.7 °C 30 in /  1014.8 hPa SSW 6.4 mph /  10.3 km/h 6.4 mph /  10.3 km/h 25 % 0 in /  0.0 mm
16:12 90.5 °F /  32.5 °C 49.8 °F /  9.9 °C 30 in /  1014.8 hPa WSW 7.6 mph /  12.2 km/h 7.6 mph /  12.2 km/h 25 % 0 in /  0.0 mm
16:17 90.7 °F /  32.6 °C 50 °F /  10.0 °C 30 in /  1015.8 hPa SW 8.1 mph /  13.0 km/h 8.1 mph /  13.0 km/h 25 % 0 in /  0.0 mm
16:22 89.8 °F /  32.1 °C 49.3 °F /  9.6 °C 30 in /  1015.8 hPa WSW 6.9 mph /  11.1 km/h 6.9 mph /  11.1 km/h 25 % 0 in /  0.0 mm
16:27 89.4 °F /  31.9 °C 50 °F /  10.0 °C 30 in /  1015.8 hPa South 10.4 mph /  16.7 km/h 10.4 mph /  16.7 km/h 26 % 0 in /  0.0 mm
16:32 89.6 °F /  32.0 °C 49.1 °F /  9.5 °C 30 in /  1015.8 hPa WSW 10.4 mph /  16.7 km/h 10.4 mph /  16.7 km/h 25 % 0 in /  0.0 mm
16:37 89.4 °F /  31.9 °C 50 °F /  10.0 °C 30 in /  1015.8 hPa SW 6.9 mph /  11.1 km/h 6.9 mph /  11.1 km/h 26 % 0 in /  0.0 mm
16:42 89.1 °F /  31.7 °C 49.6 °F /  9.8 °C 30 in /  1015.8 hPa WSW 10.4 mph /  16.7 km/h 10.4 mph /  16.7 km/h 26 % 0 in /  0.0 mm
16:47 89.4 °F /  31.9 °C 50 °F /  10.0 °C 30 in /  1014.8 hPa SW 9.7 mph /  15.6 km/h 9.7 mph /  15.6 km/h 26 % 0 in /  0.0 mm
16:52 90 °F /  32.2 °C 49.5 °F /  9.7 °C 30 in /  1014.8 hPa SW 4.7 mph /  7.6 km/h 4.7 mph /  7.6 km/h 25 % 0 in /  0.0 mm
16:57 89.4 °F /  31.9 °C 50 °F /  10.0 °C 30 in /  1014.8 hPa SSW 10.4 mph /  16.7 km/h 10.4 mph /  16.7 km/h 26 % 0 in /  0.0 mm
17:02 89.4 °F /  31.9 °C 50 °F /  10.0 °C 30 in /  1015.8 hPa SW 7.8 mph /  12.6 km/h 7.8 mph /  12.6 km/h 26 % 0 in /  0.0 mm
17:07 89.6 °F /  32.0 °C 49.1 °F /  9.5 °C 30 in /  1015.8 hPa SSW 5.8 mph /  9.3 km/h 5.8 mph /  9.3 km/h 25 % 0 in /  0.0 mm
17:12 89.4 °F /  31.9 °C 50 °F /  10.0 °C 30 in /  1015.8 hPa SW 8.1 mph /  13.0 km/h 8.1 mph /  13.0 km/h 26 % 0 in /  0.0 mm
17:17 88.7 °F /  31.5 °C 48.4 °F /  9.1 °C 30 in /  1015.8 hPa SW 6.9 mph /  11.1 km/h 6.9 mph /  11.1 km/h 25 % 0 in /  0.0 mm
17:22 88.7 °F /  31.5 °C 49.5 °F /  9.7 °C 30 in /  1015.8 hPa WSW 5.9 mph /  9.5 km/h 5.9 mph /  9.5 km/h 26 % 0 in /  0.0 mm
17:27 88.5 °F /  31.4 °C 49.3 °F /  9.6 °C 30 in /  1015.8 hPa SW 10.7 mph /  17.2 km/h 10.7 mph /  17.2 km/h 26 % 0 in /  0.0 mm
17:32 88.2 °F /  31.2 °C 48.9 °F /  9.4 °C 30 in /  1015.8 hPa SSW 10.4 mph /  16.7 km/h 10.4 mph /  16.7 km/h 26 % 0 in /  0.0 mm
17:37 88.2 °F /  31.2 °C 48.9 °F /  9.4 °C 30 in /  1015.8 hPa WNW 5.8 mph /  9.3 km/h 5.8 mph /  9.3 km/h 26 % 0 in /  0.0 mm
17:42 88.2 °F /  31.2 °C 48.9 °F /  9.4 °C 30 in /  1015.8 hPa SW 8.1 mph /  13.0 km/h 8.1 mph /  13.0 km/h 26 % 0 in /  0.0 mm
17:47 88.2 °F /  31.2 °C 48.9 °F /  9.4 °C 30 in /  1015.8 hPa SW 4 mph /  6.4 km/h 4 mph /  6.4 km/h 26 % 0 in /  0.0 mm
17:52 87.6 °F /  30.9 °C 48.6 °F /  9.2 °C 30 in /  1015.8 hPa SW 10.4 mph /  16.7 km/h 10.4 mph /  16.7 km/h 26 % 0 in /  0.0 mm
17:57 88 °F /  31.1 °C 49.8 °F /  9.9 °C 30 in /  1015.8 hPa South 5.8 mph /  9.3 km/h 5.8 mph /  9.3 km/h 27 % 0 in /  0.0 mm
18:02 88.3 °F /  31.3 °C 50.2 °F /  10.1 °C 30 in /  1015.8 hPa SSW 4.6 mph /  7.4 km/h 4.6 mph /  7.4 km/h 27 % 0 in /  0.0 mm
18:07 88.3 °F /  31.3 °C 50.2 °F /  10.1 °C 30 in /  1015.8 hPa South 6.9 mph /  11.1 km/h 6.9 mph /  11.1 km/h 27 % 0 in /  0.0 mm
18:12 88.3 °F /  31.3 °C 50.2 °F /  10.1 °C 30 in /  1015.8 hPa WSW 7.8 mph /  12.6 km/h 7.8 mph /  12.6 km/h 27 % 0 in /  0.0 mm
18:17 88.2 °F /  31.2 °C 50 °F /  10.0 °C 30 in /  1015.8 hPa SW 7.4 mph /  11.9 km/h 7.4 mph /  11.9 km/h 27 % 0 in /  0.0 mm
18:18 88 °F /  31.1 °C 49.8 °F /  9.9 °C 30 in /  1015.8 hPa SW 6.9 mph /  11.1 km/h 6.9 mph /  11.1 km/h 27 % 0 in /  0.0 mm
18:23 87.3 °F /  30.7 °C 49.3 °F /  9.6 °C 30 in /  1015.8 hPa SW 6.2 mph /  10.0 km/h 6.2 mph /  10.0 km/h 27 % 0 in /  0.0 mm
18:28 87.8 °F /  31.0 °C 49.6 °F /  9.8 °C 30 in /  1015.8 hPa SSW 4.9 mph /  7.9 km/h 4.9 mph /  7.9 km/h 27 % 0 in /  0.0 mm
18:33 86.5 °F /  30.3 °C 48.6 °F /  9.2 °C 30 in /  1015.8 hPa South 8.1 mph /  13.0 km/h 8.1 mph /  13.0 km/h 27 % 0 in /  0.0 mm
18:38 86 °F /  30.0 °C 48 °F /  8.9 °C 30 in /  1015.8 hPa SSW 5.8 mph /  9.3 km/h 5.8 mph /  9.3 km/h 27 % 0 in /  0.0 mm
18:43 86.5 °F /  30.3 °C 49.6 °F /  9.8 °C 30 in /  1015.8 hPa SSW 6.9 mph /  11.1 km/h 6.9 mph /  11.1 km/h 28 % 0 in /  0.0 mm
18:48 86 °F /  30.0 °C 49.1 °F /  9.5 °C 30 in /  1015.8 hPa SW 10.4 mph /  16.7 km/h 10.4 mph /  16.7 km/h 28 % 0 in /  0.0 mm
18:53 85.6 °F /  29.8 °C 48.7 °F /  9.3 °C 30 in /  1015.8 hPa SW 5.8 mph /  9.3 km/h 5.8 mph /  9.3 km/h 28 % 0 in /  0.0 mm
18:58 85.5 °F /  29.7 °C 48.6 °F /  9.2 °C 30 in /  1015.8 hPa South 8.1 mph /  13.0 km/h 8.1 mph /  13.0 km/h 28 % 0 in /  0.0 mm
19:03 84.9 °F /  29.4 °C 48.2 °F /  9.0 °C 30 in /  1015.8 hPa SW 6.2 mph /  10.0 km/h 6.2 mph /  10.0 km/h 28 % 0 in /  0.0 mm
19:08 84.6 °F /  29.2 °C 47.8 °F /  8.8 °C 30 in /  1015.8 hPa SSW 4.6 mph /  7.4 km/h 4.6 mph /  7.4 km/h 28 % 0 in /  0.0 mm
19:13 84.4 °F /  29.1 °C 47.7 °F /  8.7 °C 30 in /  1015.8 hPa SW 10.7 mph /  17.2 km/h 10.7 mph /  17.2 km/h 28 % 0 in /  0.0 mm
19:18 84 °F /  28.9 °C 48.4 °F /  9.1 °C 30 in /  1015.8 hPa South 6.9 mph /  11.1 km/h 6.9 mph /  11.1 km/h 29 % 0 in /  0.0 mm
19:20 71.1 °F /  21.7 °C 50.4 °F /  10.2 °C 30.1 in /  1017.8 hPa WSW 2 mph /  3.2 km/h 2 mph /  3.2 km/h 48 % 0 in /  0.0 mm
19:23 84 °F /  28.9 °C 48.4 °F /  9.1 °C 30 in /  1015.8 hPa WSW 5.8 mph /  9.3 km/h 5.8 mph /  9.3 km/h 29 % 0 in /  0.0 mm
19:24 84 °F /  28.9 °C 48.4 °F /  9.1 °C 30 in /  1015.8 hPa SSW 4 mph /  6.4 km/h 4 mph /  6.4 km/h 29 % 0 in /  0.0 mm
19:29 83.3 °F /  28.5 °C 47.7 °F /  8.7 °C 30 in /  1015.8 hPa WSW 8.1 mph /  13.0 km/h 8.1 mph /  13.0 km/h 29 % 0 in /  0.0 mm
19:30 70.7 °F /  21.5 °C 50.5 °F /  10.3 °C 30.1 in /  1017.8 hPa WSW 1 mph /  1.6 km/h 2 mph /  3.2 km/h 49 % 0 in /  0.0 mm
19:34 82.8 °F /  28.2 °C 47.3 °F /  8.5 °C 30 in /  1015.8 hPa WSW 6.7 mph /  10.8 km/h 6.7 mph /  10.8 km/h 29 % 0 in /  0.0 mm
19:40 70.5 °F /  21.4 °C 51.1 °F /  10.6 °C 30.1 in /  1017.8 hPa WSW 1 mph /  1.6 km/h 2 mph /  3.2 km/h 50 % 0 in /  0.0 mm
19:44 82.2 °F /  27.9 °C 47.7 °F /  8.7 °C 30 in /  1015.8 hPa SSW 6.9 mph /  11.1 km/h 6.9 mph /  11.1 km/h 30 % 0 in /  0.0 mm
19:49 81.9 °F /  27.7 °C 47.5 °F /  8.6 °C 30 in /  1015.8 hPa WSW 9.2 mph /  14.8 km/h 9.2 mph /  14.8 km/h 30 % 0 in /  0.0 mm
19:54 81.5 °F /  27.5 °C 47.1 °F /  8.4 °C 30 in /  1015.8 hPa South 8.1 mph /  13.0 km/h 8.1 mph /  13.0 km/h 30 % 0 in /  0.0 mm
19:59 81.1 °F /  27.3 °C 46.8 °F /  8.2 °C 30 in /  1015.8 hPa SW 6.9 mph /  11.1 km/h 6.9 mph /  11.1 km/h 30 % 0 in /  0.0 mm
20:00 70.2 °F /  21.2 °C 52.2 °F /  11.2 °C 30.1 in /  1017.8 hPa Calm   2 mph /  3.2 km/h 53 % 0 in /  0.0 mm
20:04 80.8 °F /  27.1 °C 46.4 °F /  8.0 °C 30 in /  1015.8 hPa WSW 5.8 mph /  9.3 km/h 5.8 mph /  9.3 km/h 30 % 0 in /  0.0 mm
20:09 80.6 °F /  27.0 °C 46.2 °F /  7.9 °C 30 in /  1015.8 hPa WSW 4.6 mph /  7.4 km/h 4.6 mph /  7.4 km/h 30 % 0 in /  0.0 mm
20:10 69.6 °F /  20.9 °C 52.7 °F /  11.5 °C 30.1 in /  1017.8 hPa Calm     55 % 0 in /  0.0 mm
20:14 80.4 °F /  26.9 °C 46 °F /  7.8 °C 30 in /  1015.8 hPa SW 4.6 mph /  7.4 km/h 4.6 mph /  7.4 km/h 30 % 0 in /  0.0 mm
20:19 80.2 °F /  26.8 °C 46.9 °F /  8.3 °C 30 in /  1015.8 hPa SSW 4.6 mph /  7.4 km/h 4.6 mph /  7.4 km/h 31 % 0 in /  0.0 mm
20:20 69.1 °F /  20.6 °C 52.2 °F /  11.2 °C 30.1 in /  1017.8 hPa Calm     55 % 0 in /  0.0 mm
20:24 79.9 °F /  26.6 °C 46.6 °F /  8.1 °C 30 in /  1015.8 hPa SSW 3.5 mph /  5.6 km/h 3.5 mph /  5.6 km/h 31 % 0 in /  0.0 mm
20:29 79.7 °F /  26.5 °C 46.4 °F /  8.0 °C 30 in /  1015.8 hPa SSW 4 mph /  6.4 km/h 4 mph /  6.4 km/h 31 % 0 in /  0.0 mm
20:30 68.7 °F /  20.4 °C 52.3 °F /  11.3 °C 30.1 in /  1017.8 hPa Calm   2 mph /  3.2 km/h 56 % 0 in /  0.0 mm
20:34 79.3 °F /  26.3 °C 46 °F /  7.8 °C 30 in /  1015.8 hPa WSW 4.3 mph /  6.9 km/h 4.3 mph /  6.9 km/h 31 % 0 in /  0.0 mm
20:39 79 °F /  26.1 °C 46.6 °F /  8.1 °C 30 in /  1015.8 hPa WSW 3.5 mph /  5.6 km/h 3.5 mph /  5.6 km/h 32 % 0 in /  0.0 mm
20:40 68.4 °F /  20.2 °C 53.1 °F /  11.7 °C 30.1 in /  1017.8 hPa Calm     58 % 0 in /  0.0 mm
20:44 78.6 °F /  25.9 °C 46.2 °F /  7.9 °C 30 in /  1015.8 hPa SW 8.1 mph /  13.0 km/h 8.1 mph /  13.0 km/h 32 % 0 in /  0.0 mm
20:49 78.3 °F /  25.7 °C 46 °F /  7.8 °C 30 in /  1015.8 hPa SW 4.9 mph /  7.9 km/h 4.9 mph /  7.9 km/h 32 % 0 in /  0.0 mm
20:50 68.4 °F /  20.2 °C 53.4 °F /  11.9 °C 30.1 in /  1017.8 hPa Calm     59 % 0 in /  0.0 mm
20:54 78.1 °F /  25.6 °C 46.6 °F /  8.1 °C 30 in /  1015.8 hPa SW 3.8 mph /  6.1 km/h 3.8 mph /  6.1 km/h 33 % 0 in /  0.0 mm
20:59 77.7 °F /  25.4 °C 46.2 °F /  7.9 °C 30 in /  1015.8 hPa SSW 5.8 mph /  9.3 km/h 5.8 mph /  9.3 km/h 33 % 0 in /  0.0 mm
21:00 68.7 °F /  20.4 °C 53.8 °F /  12.1 °C 30.1 in /  1017.8 hPa WSW 1 mph /  1.6 km/h 2 mph /  3.2 km/h 59 % 0 in /  0.0 mm
21:04 77.5 °F /  25.3 °C 46.2 °F /  7.9 °C 30 in /  1015.8 hPa SW 5.8 mph /  9.3 km/h 5.8 mph /  9.3 km/h 33 % 0 in /  0.0 mm
21:09 77.2 °F /  25.1 °C 46.6 °F /  8.1 °C 30 in /  1015.8 hPa SSW 2.6 mph /  4.2 km/h 2.6 mph /  4.2 km/h 34 % 0 in /  0.0 mm
21:10 69.1 °F /  20.6 °C 53.8 °F /  12.1 °C 30 in /  1016.8 hPa West 2 mph /  3.2 km/h 2 mph /  3.2 km/h 58 % 0 in /  0.0 mm
21:14 76.8 °F /  24.9 °C 47.1 °F /  8.4 °C 30 in /  1015.8 hPa SSW 2.6 mph /  4.2 km/h 2.6 mph /  4.2 km/h 35 % 0 in /  0.0 mm
21:19 76.5 °F /  24.7 °C 46.8 °F /  8.2 °C 30 in /  1015.8 hPa SSW 6.9 mph /  11.1 km/h 6.9 mph /  11.1 km/h 35 % 0 in /  0.0 mm
21:20 69.3 °F /  20.7 °C 54.3 °F /  12.4 °C 30 in /  1016.8 hPa WSW 1 mph /  1.6 km/h 2 mph /  3.2 km/h 59 % 0 in /  0.0 mm
21:24 76.1 °F /  24.5 °C 47.1 °F /  8.4 °C 30 in /  1015.8 hPa SW 4.6 mph /  7.4 km/h 4.6 mph /  7.4 km/h 36 % 0 in /  0.0 mm
21:29 75.9 °F /  24.4 °C 46.9 °F /  8.3 °C 30 in /  1015.8 hPa SW 2.9 mph /  4.7 km/h 2.9 mph /  4.7 km/h 36 % 0 in /  0.0 mm
21:30 69.1 °F /  20.6 °C 54.1 °F /  12.3 °C 30 in /  1015.8 hPa Calm   1 mph /  1.6 km/h 59 % 0 in /  0.0 mm
21:34 75.6 °F /  24.2 °C 47.5 °F /  8.6 °C 30 in /  1015.8 hPa SSW 1.4 mph /  2.3 km/h 2.2 mph /  3.5 km/h 37 % 0 in /  0.0 mm
21:39 75.2 °F /  24.0 °C 47.1 °F /  8.4 °C 30 in /  1015.8 hPa SW 2.6 mph /  4.2 km/h 2.6 mph /  4.2 km/h 37 % 0 in /  0.0 mm
21:40 68.2 °F /  20.1 °C 53.8 °F /  12.1 °C 30 in /  1015.8 hPa West 1 mph /  1.6 km/h 2 mph /  3.2 km/h 60 % 0 in /  0.0 mm
21:44 75 °F /  23.9 °C 46.9 °F /  8.3 °C 30 in /  1015.8 hPa SW 3.5 mph /  5.6 km/h 3.5 mph /  5.6 km/h 37 % 0 in /  0.0 mm
21:50 67.5 °F /  19.7 °C 54 °F /  12.2 °C 30 in /  1015.8 hPa North 1 mph /  1.6 km/h 1 mph /  1.6 km/h 62 % 0 in /  0.0 mm
21:54 74.5 °F /  23.6 °C 47.1 °F /  8.4 °C 30 in /  1015.8 hPa SW 3.5 mph /  5.6 km/h 3.5 mph /  5.6 km/h 38 % 0 in /  0.0 mm
21:59 74.3 °F /  23.5 °C 47.7 °F /  8.7 °C 30 in /  1015.8 hPa WSW 2.3 mph /  3.7 km/h 2.3 mph /  3.7 km/h 39 % 0 in /  0.0 mm
22:00 66.9 °F /  19.4 °C 53.4 °F /  11.9 °C 30 in /  1015.8 hPa Calm   1 mph /  1.6 km/h 62 % 0 in /  0.0 mm
22:04 74.1 °F /  23.4 °C 47.7 °F /  8.7 °C 30 in /  1014.8 hPa WSW 2.3 mph /  3.7 km/h 2.3 mph /  3.7 km/h 39 % 0 in /  0.0 mm
22:09 73.9 °F /  23.3 °C 47.5 °F /  8.6 °C 30 in /  1014.8 hPa WSW 3.5 mph /  5.6 km/h 3.5 mph /  5.6 km/h 39 % 0 in /  0.0 mm
22:10 66.4 °F /  19.1 °C 53.4 °F /  11.9 °C 30 in /  1015.8 hPa Calm     63 % 0 in /  0.0 mm
22:14 73.8 °F /  23.2 °C 47.8 °F /  8.8 °C 30 in /  1014.8 hPa WSW 2.3 mph /  3.7 km/h 2.3 mph /  3.7 km/h 40 % 0 in /  0.0 mm
22:19 73.4 °F /  23.0 °C 47.7 °F /  8.7 °C 30 in /  1015.8 hPa WSW 2.3 mph /  3.7 km/h 2.3 mph /  3.7 km/h 40 % 0 in /  0.0 mm
22:20 65.8 °F /  18.8 °C 53.8 °F /  12.1 °C 30 in /  1015.8 hPa Calm     65 % 0 in /  0.0 mm
22:24 73.2 °F /  22.9 °C 48.7 °F /  9.3 °C 30 in /  1015.8 hPa WSW 1.4 mph /  2.3 km/h 1.4 mph /  2.3 km/h 42 % 0 in /  0.0 mm
22:29 73 °F /  22.8 °C 48.6 °F /  9.2 °C 30 in /  1015.8 hPa WSW 1.2 mph /  1.9 km/h 1.2 mph /  1.9 km/h 42 % 0 in /  0.0 mm
22:30 65.3 °F /  18.5 °C 52.9 °F /  11.6 °C 30 in /  1015.8 hPa North 1 mph /  1.6 km/h 1 mph /  1.6 km/h 64 % 0 in /  0.0 mm
22:34 72.7 °F /  22.6 °C 48.9 °F /  9.4 °C 30 in /  1015.8 hPa WSW 2.3 mph /  3.7 km/h 2.3 mph /  3.7 km/h 43 % 0 in /  0.0 mm
22:39 72.7 °F /  22.6 °C 48.9 °F /  9.4 °C 30 in /  1015.8 hPa WSW 1.2 mph /  1.9 km/h 1.2 mph /  1.9 km/h 43 % 0 in /  0.0 mm
22:40 64.6 °F /  18.1 °C 52.2 °F /  11.2 °C 30 in /  1015.8 hPa West 1 mph /  1.6 km/h 2 mph /  3.2 km/h 64 % 0 in /  0.0 mm
22:44 72.5 °F /  22.5 °C 48.7 °F /  9.3 °C 30 in /  1015.8 hPa West 2.6 mph /  4.2 km/h 2.6 mph /  4.2 km/h 43 % 0 in /  0.0 mm
22:49 72.3 °F /  22.4 °C 49.3 °F /  9.6 °C 30 in /  1016.8 hPa SW 2.3 mph /  3.7 km/h 2.3 mph /  3.7 km/h 44 % 0 in /  0.0 mm
22:50 64.4 °F /  18.0 °C 52 °F /  11.1 °C 30 in /  1015.8 hPa Calm   1 mph /  1.6 km/h 64 % 0 in /  0.0 mm
22:54 72.1 °F /  22.3 °C 49.6 °F /  9.8 °C 30 in /  1016.8 hPa SW 1.2 mph /  1.9 km/h 1.2 mph /  1.9 km/h 45 % 0 in /  0.0 mm
22:59 72 °F /  22.2 °C 49.5 °F /  9.7 °C 30 in /  1016.8 hPa WSW 1.6 mph /  2.6 km/h   45 % 0 in /  0.0 mm
23:00 64.4 °F /  18.0 °C 52 °F /  11.1 °C 30 in /  1015.8 hPa SW 1 mph /  1.6 km/h 2 mph /  3.2 km/h 64 % 0 in /  0.0 mm
23:04 71.8 °F /  22.1 °C 49.3 °F /  9.6 °C 30 in /  1016.8 hPa WSW 1.2 mph /  1.9 km/h 1.2 mph /  1.9 km/h 45 % 0 in /  0.0 mm
23:09 71.8 °F /  22.1 °C 49.8 °F /  9.9 °C 30 in /  1016.8 hPa WSW 1.6 mph /  2.6 km/h   46 % 0 in /  0.0 mm
23:10 64.4 °F /  18.0 °C 52 °F /  11.1 °C 30 in /  1014.8 hPa Calm     64 % 0 in /  0.0 mm
23:14 71.6 °F /  22.0 °C 49.6 °F /  9.8 °C 30 in /  1016.8 hPa WSW 2.3 mph /  3.7 km/h   46 % 0 in /  0.0 mm
23:19 71.6 °F /  22.0 °C 49.6 °F /  9.8 °C 30.1 in /  1017.8 hPa West 2.3 mph /  3.7 km/h 2.3 mph /  3.7 km/h 46 % 0 in /  0.0 mm
23:20 64.2 °F /  17.9 °C 51.8 °F /  11.0 °C 30 in /  1014.8 hPa South 1 mph /  1.6 km/h 2 mph /  3.2 km/h 64 % 0 in /  0.0 mm
23:24 71.6 °F /  22.0 °C 49.6 °F /  9.8 °C 30.1 in /  1017.8 hPa West 1.6 mph /  2.6 km/h 1.6 mph /  2.6 km/h 46 % 0 in /  0.0 mm
23:29 71.6 °F /  22.0 °C 49.6 °F /  9.8 °C 30.1 in /  1017.8 hPa WSW 2.3 mph /  3.7 km/h 2.3 mph /  3.7 km/h 46 % 0 in /  0.0 mm
23:30 64 °F /  17.8 °C 51.6 °F /  10.9 °C 30 in /  1014.8 hPa Calm   1 mph /  1.6 km/h 64 % 0 in /  0.0 mm
23:34 71.6 °F /  22.0 °C 50.4 °F /  10.2 °C 30.1 in /  1017.8 hPa West 2 mph /  3.2 km/h 2 mph /  3.2 km/h 47 % 0 in /  0.0 mm
23:39 71.4 °F /  21.9 °C 50.2 °F /  10.1 °C 30.1 in /  1017.8 hPa West 2.3 mph /  3.7 km/h 2.3 mph /  3.7 km/h 47 % 0 in /  0.0 mm
23:40 64 °F /  17.8 °C 51.3 °F /  10.7 °C 30 in /  1015.8 hPa SW 1 mph /  1.6 km/h 2 mph /  3.2 km/h 63 % 0 in /  0.0 mm
23:44 71.4 °F /  21.9 °C 50.2 °F /  10.1 °C 30.1 in /  1017.8 hPa WSW 2.3 mph /  3.7 km/h 2.3 mph /  3.7 km/h 47 % 0 in /  0.0 mm
23:49 71.4 °F /  21.9 °C 50.2 °F /  10.1 °C 30.1 in /  1017.8 hPa WSW 2.3 mph /  3.7 km/h 2.3 mph /  3.7 km/h 47 % 0 in /  0.0 mm
23:50 63.7 °F /  17.6 °C 50.4 °F /  10.2 °C 30 in /  1015.8 hPa Calm   1 mph /  1.6 km/h 62 % 0 in /  0.0 mm
23:54 71.4 °F /  21.9 °C 50.7 °F /  10.4 °C 30.1 in /  1017.8 hPa WSW 1.6 mph /  2.6 km/h 1.6 mph /  2.6 km/h 48 % 0 in /  0.0 mm
23:59 71.4 °F /  21.9 °C 50.7 °F /  10.4 °C 30.1 in /  1017.8 hPa West 2.3 mph /  3.7 km/h 2.3 mph /  3.7 km/h 48 % 0 in /  0.0 mm
Meteo Sesrovires
Elogis d' Weather Underground - 3.75 mb

Guio original per  Jim McMurry - jmcmurry@mwt.net Adaptat per a la plantilla per  Wim van der Kuil - Leuven-Template.eu

Trobareu la nostra informacio del temps tambe a:

Weather Underground

AWEKAS